Terminal Aerodrome Forecast
Issued by NWS Grand Rapids, MI

Home | Current Version | Previous Version | Text Only | Print | Product List | Glossary On
Versions: 1 2 3 4 5 6 7 8 9 10 11 12 13 14 15 16
000
FTUS43 KGRR 251914 AAB
TAFGRR
TAF AMD
KGRR 251914Z 2519/2618 07013KT P6SM -RA BKN006 OVC016
      TEMPO 2520/2522 4SM SHRA BR OVC005
     FM252200 09015KT 6SM BR OVC003
     FM260100 09014KT 3SM -SHRA VCTS OVC008CB
     FM260500 09013KT 2SM -DZ BR OVC003
     FM260900 10012KT 1 1/2SM -SHRA OVC008
     FM261600 12008KT 3SM -RA BR OVC015=

USA.gov is the U.S. government's official web portal to all federal, state and local government web resources and services.